Time;durP1;ratioP1;P1;durP2;ratioP2;P2;SDS_P1;SDS_P2;PMS_P1;PMS_P2;Temp;Humidity;BMP_temperature;BMP_pressure;BME280_temperature;BME280_humidity;BME280_pressure;Samples;Min_cycle;Max_cycle;Signal;HPM_P1;HPM_P2
2023/10/09 00:01:01;;;;;;;1999.90;999.90;;;;;;;;;;6210888;23;20028;-81
2023/10/09 00:03:28;;;;;;;1999.90;999.90;;;;;;;;;;6210733;23;20387;-81
2023/10/09 00:05:57;;;;;;;1999.90;999.90;;;;;;;;;;6210747;23;20024;-82
2023/10/09 00:08:30;;;;;;;1999.90;999.90;;;;;;;;;;6211164;23;20024;-81
2023/10/09 00:10:58;;;;;;;1999.90;999.90;;;;;;;;;;6210844;23;20017;-80
2023/10/09 00:13:30;;;;;;;1999.90;999.90;;;;;;;;;;6210536;23;20024;-80
2023/10/09 00:15:59;;;;;;;1999.90;999.90;;;;;;;;;;6210385;23;20032;-80
2023/10/09 00:18:29;;;;;;;1999.90;999.90;;;;;;;;;;6210526;23;20021;-82
2023/10/09 00:21:11;;;;;;;1999.90;999.90;;;;;;;;;;6210236;23;20024;-80
2023/10/09 00:23:38;;;;;;;1999.90;999.90;;;;;;;;;;6210574;23;20100;-81
2023/10/09 00:26:10;;;;;;;1999.90;999.90;;;;;;;;;;6210455;23;20030;-81
2023/10/09 00:28:37;;;;;;;1999.90;999.90;;;;;;;;;;6210538;23;20059;-81
2023/10/09 00:31:07;;;;;;;1999.90;999.90;;;;;;;;;;6210357;23;20020;-82
2023/10/09 00:33:34;;;;;;;1999.90;999.90;;;;;;;;;;6210701;23;20052;-79
2023/10/09 00:36:09;;;;;;;1999.90;999.90;;;;;;;;;;6210738;23;20036;-79
2023/10/09 00:38:38;;;;;;;1999.90;999.90;;;;;;;;;;6210303;23;20021;-80
2023/10/09 00:41:10;;;;;;;1999.90;999.90;;;;;;;;;;6210447;23;20017;-81
2023/10/09 00:43:37;;;;;;;1999.90;999.90;;;;;;;;;;6210041;23;20020;-81
2023/10/09 00:46:08;;;;;;;1999.90;999.90;;;;;;;;;;6210096;23;20024;-80
2023/10/09 00:48:39;;;;;;;1999.90;999.90;;;;;;;;;;6210000;23;20455;-82
2023/10/09 00:51:16;;;;;;;1999.90;999.90;;;;;;;;;;6210159;23;20017;-81
2023/10/09 00:53:45;;;;;;;1999.90;999.90;;;;;;;;;;6209970;23;20100;-81
2023/10/09 00:56:18;;;;;;;1999.90;999.90;;;;;;;;;;6210440;23;20024;-82
2023/10/09 00:58:46;;;;;;;1999.90;999.90;;;;;;;;;;6209644;23;20383;-82
2023/10/09 01:01:16;;;;;;;1999.90;999.90;;;;;;;;;;6210680;23;20025;-82
2023/10/09 01:03:43;;;;;;;1999.90;999.90;;;;;;;;;;6209144;22;20521;-86
2023/10/09 01:06:21;;;;;;;1999.90;999.90;;;;;;;;;;6210464;23;20772;-87
2023/10/09 01:08:56;;;;;;;1999.90;999.90;;;;;;;;;;6210516;23;20090;-86
2023/10/09 01:11:29;;;;;;;1999.90;999.90;;;;;;;;;;6210813;23;20024;-86
2023/10/09 01:14:11;;;;;;;1999.90;999.90;;;;;;;;;;6208096;23;20070;-86
2023/10/09 01:16:38;;;;;;;1999.90;999.90;;;;;;;;;;6210078;23;20024;-86
2023/10/09 01:19:19;;;;;;;1999.90;999.90;;;;;;;;;;6210697;23;20028;-86
2023/10/09 01:21:48;;;;;;;1999.90;999.90;;;;;;;;;;6210287;23;20021;-87
2023/10/09 01:24:19;;;;;;;1999.90;999.90;;;;;;;;;;6209952;23;20028;-86
2023/10/09 01:26:46;;;;;;;1999.90;999.90;;;;;;;;;;6210908;23;20020;-86
2023/10/09 01:29:16;;;;;;;1999.90;999.90;;;;;;;;;;6209792;23;20733;-87
2023/10/09 01:31:50;;;;;;;1999.90;999.90;;;;;;;;;;6209894;23;20035;-86
2023/10/09 01:34:17;;;;;;;1999.90;999.90;;;;;;;;;;6209717;23;20029;-86
2023/10/09 01:36:48;;;;;;;1999.90;999.90;;;;;;;;;;6207834;23;20016;-86
2023/10/09 01:39:26;;;;;;;1999.90;999.90;;;;;;;;;;6209131;23;20032;-86
2023/10/09 01:41:58;;;;;;;1999.90;999.90;;;;;;;;;;6208175;23;20134;-86
2023/10/09 01:44:27;;;;;;;1999.90;999.90;;;;;;;;;;6210037;23;20044;-86
2023/10/09 01:46:55;;;;;;;1999.90;999.90;;;;;;;;;;6207922;23;20021;-85
2023/10/09 01:49:29;;;;;;;1999.90;999.90;;;;;;;;;;6210017;23;20020;-86
2023/10/09 01:52:01;;;;;;;1999.90;999.90;;;;;;;;;;6209776;23;20032;-86
2023/10/09 01:54:36;;;;;;;1999.90;999.90;;;;;;;;;;6209834;23;20028;-85
2023/10/09 01:57:05;;;;;;;1999.90;999.90;;;;;;;;;;6185288;23;20079;-87
2023/10/09 01:59:32;;;;;;;1999.90;999.90;;;;;;;;;;6210559;23;20039;-87
2023/10/09 02:02:00;;;;;;;1999.90;999.90;;;;;;;;;;6208340;23;20103;-86
2023/10/09 02:04:29;;;;;;;1999.90;999.90;;;;;;;;;;6209617;23;20059;-86
2023/10/09 02:06:55;;;;;;;1999.90;999.90;;;;;;;;;;6210091;23;20025;-86
2023/10/09 02:09:31;;;;;;;1999.90;999.90;;;;;;;;;;6209189;23;20036;-86
2023/10/09 02:12:00;;;;;;;1999.90;999.90;;;;;;;;;;6208022;23;20025;-86
2023/10/09 02:14:27;;;;;;;1999.90;999.90;;;;;;;;;;6209691;23;20028;-84
2023/10/09 02:17:05;;;;;;;1999.90;999.90;;;;;;;;;;6208903;23;20765;-84
2023/10/09 02:19:34;;;;;;;1999.90;999.90;;;;;;;;;;6185161;23;20031;-84
2023/10/09 02:22:02;;;;;;;1999.90;999.90;;;;;;;;;;6209525;23;20527;-85
2023/10/09 02:27:12;;;;;;;1999.90;999.90;;;;;;;;;;6209358;23;20056;-85
2023/10/09 02:29:38;;;;;;;1999.90;999.90;;;;;;;;;;6210171;23;20032;-85
2023/10/09 02:32:14;;;;;;;1999.90;999.90;;;;;;;;;;6207135;23;20024;-85
2023/10/09 02:34:41;;;;;;;1999.90;999.90;;;;;;;;;;6209626;23;20024;-86
2023/10/09 02:37:12;;;;;;;1999.90;999.90;;;;;;;;;;6209011;23;20024;-86
2023/10/09 02:39:43;;;;;;;1999.90;999.90;;;;;;;;;;6207933;23;20024;-84
2023/10/09 02:42:23;;;;;;;1999.90;999.90;;;;;;;;;;6208163;23;20051;-85
2023/10/09 02:44:51;;;;;;;1999.90;999.90;;;;;;;;;;6209718;23;20024;-84
2023/10/09 02:47:20;;;;;;;1999.90;999.90;;;;;;;;;;6207613;23;20036;-86
2023/10/09 02:49:50;;;;;;;1999.90;999.90;;;;;;;;;;6208767;23;20465;-85
2023/10/09 02:52:18;;;;;;;1999.90;999.90;;;;;;;;;;6209931;23;20029;-86
2023/10/09 02:54:47;;;;;;;1999.90;999.90;;;;;;;;;;6209037;23;20020;-85
2023/10/09 02:57:23;;;;;;;1999.90;999.90;;;;;;;;;;6207970;23;20103;-85
2023/10/09 02:59:52;;;;;;;1999.90;999.90;;;;;;;;;;6209520;23;20059;-86
2023/10/09 03:02:19;;;;;;;1999.90;999.90;;;;;;;;;;6209175;23;20024;-85
2023/10/09 03:04:47;;;;;;;1999.90;999.90;;;;;;;;;;6209401;23;20094;-86
2023/10/09 03:07:14;;;;;;;1999.90;999.90;;;;;;;;;;6207763;23;20017;-85
2023/10/09 03:09:41;;;;;;;1999.90;999.90;;;;;;;;;;6207677;23;20024;-86
2023/10/09 03:12:09;;;;;;;1999.90;999.90;;;;;;;;;;6208635;23;20022;-85
2023/10/09 03:14:39;;;;;;;1999.90;999.90;;;;;;;;;;6209927;23;20060;-86
2023/10/09 03:17:07;;;;;;;1999.90;999.90;;;;;;;;;;6209620;23;20086;-85
2023/10/09 03:19:37;;;;;;;1999.90;999.90;;;;;;;;;;6209554;23;20036;-84
2023/10/09 03:22:04;;;;;;;1999.90;999.90;;;;;;;;;;6210450;23;20028;-84
2023/10/09 03:24:31;;;;;;;1999.90;999.90;;;;;;;;;;6209349;23;20128;-84
2023/10/09 03:26:58;;;;;;;1999.90;999.90;;;;;;;;;;6210383;23;20020;-84
2023/10/09 03:29:27;;;;;;;1999.90;999.90;;;;;;;;;;6209559;23;20090;-85
2023/10/09 03:31:56;;;;;;;1999.90;999.90;;;;;;;;;;6210960;23;20432;-85
2023/10/09 03:34:23;;;;;;;1999.90;999.90;;;;;;;;;;6209770;23;20187;-85
2023/10/09 03:36:59;;;;;;;1999.90;999.90;;;;;;;;;;6210246;23;20048;-85
2023/10/09 03:39:34;;;;;;;1999.90;999.90;;;;;;;;;;6209348;23;20025;-85
2023/10/09 03:42:04;;;;;;;1999.90;999.90;;;;;;;;;;6209414;23;20103;-85
2023/10/09 03:44:33;;;;;;;1999.90;999.90;;;;;;;;;;6211265;23;20032;-84
2023/10/09 03:47:02;;;;;;;1999.90;999.90;;;;;;;;;;6209394;23;20536;-84
2023/10/09 03:49:29;;;;;;;1999.90;999.90;;;;;;;;;;6210767;23;20024;-85
2023/10/09 03:51:56;;;;;;;1999.90;999.90;;;;;;;;;;6210845;23;20019;-85
2023/10/09 03:54:25;;;;;;;1999.90;999.90;;;;;;;;;;6209530;23;20021;-85
2023/10/09 03:56:54;;;;;;;1999.90;999.90;;;;;;;;;;6210636;23;20024;-86
2023/10/09 03:59:21;;;;;;;1999.90;999.90;;;;;;;;;;6211074;23;20028;-86
2023/10/09 04:01:52;;;;;;;1999.90;999.90;;;;;;;;;;6210418;23;20103;-85
2023/10/09 04:04:22;;;;;;;1999.90;999.90;;;;;;;;;;6210968;23;20080;-84
2023/10/09 04:06:51;;;;;;;1999.90;999.90;;;;;;;;;;6210002;23;20017;-84
2023/10/09 04:09:35;;;;;;;1999.90;999.90;;;;;;;;;;6211016;23;20074;-86
2023/10/09 04:12:20;;;;;;;1999.90;999.90;;;;;;;;;;6210558;23;20027;-85
2023/10/09 04:14:54;;;;;;;1999.90;999.90;;;;;;;;;;6211089;23;20104;-84
2023/10/09 04:17:34;;;;;;;1999.90;999.90;;;;;;;;;;6210633;23;20468;-85
2023/10/09 04:22:51;;;;;;;1999.90;999.90;;;;;;;;;;6210000;23;20039;-85
2023/10/09 04:25:25;;;;;;;1999.90;999.90;;;;;;;;;;6210604;23;20357;-85
2023/10/09 04:27:59;;;;;;;1999.90;999.90;;;;;;;;;;6211049;23;20654;-85
2023/10/09 04:30:27;;;;;;;1999.90;999.90;;;;;;;;;;6211492;23;20032;-85
2023/10/09 04:32:59;;;;;;;1999.90;999.90;;;;;;;;;;6210861;23;20025;-86
2023/10/09 04:35:32;;;;;;;1999.90;999.90;;;;;;;;;;6210744;23;20095;-85
2023/10/09 04:38:05;;;;;;;1999.90;999.90;;;;;;;;;;6209416;23;20028;-85
2023/10/09 04:40:48;;;;;;;1999.90;999.90;;;;;;;;;;6210882;23;20024;-85
2023/10/09 04:43:20;;;;;;;1999.90;999.90;;;;;;;;;;6211058;23;20021;-85
2023/10/09 04:48:37;;;;;;;1999.90;999.90;;;;;;;;;;6211166;23;20124;-85
2023/10/09 04:51:34;;;;;;;1999.90;999.90;;;;;;;;;;6208653;23;20023;-85
2023/10/09 04:54:12;;;;;;;1999.90;999.90;;;;;;;;;;6209436;23;20236;-86
2023/10/09 04:56:51;;;;;;;1999.90;999.90;;;;;;;;;;6211029;23;20024;-88
2023/10/09 04:59:19;;;;;;;1999.90;999.90;;;;;;;;;;6209001;23;20468;-85
2023/10/09 05:01:58;;;;;;;1999.90;999.90;;;;;;;;;;6210743;23;20421;-86
2023/10/09 05:04:39;;;;;;;1999.90;999.90;;;;;;;;;;6210009;23;20028;-86
2023/10/09 05:10:06;;;;;;;1999.90;999.90;;;;;;;;;;6210654;23;20123;-86
2023/10/09 05:12:41;;;;;;;1999.90;999.90;;;;;;;;;;6210373;23;20051;-85
2023/10/09 05:15:09;;;;;;;1999.90;999.90;;;;;;;;;;6210543;23;20461;-85
2023/10/09 05:17:35;;;;;;;1999.90;999.90;;;;;;;;;;6209218;23;20464;-85
2023/10/09 05:22:58;;;;;;;1999.90;999.90;;;;;;;;;;6210620;23;20026;-85
2023/10/09 05:28:52;;;;;;;1999.90;999.90;;;;;;;;;;5138594;27;20395;-85
2023/10/09 05:34:01;;;;;;;1999.90;999.90;;;;;;;;;;5139565;27;20176;-85
2023/10/09 05:36:35;;;;;;;1999.90;999.90;;;;;;;;;;5136334;27;20697;-84
2023/10/09 05:41:52;;;;;;;1999.90;999.90;;;;;;;;;;5135852;27;20708;-84
2023/10/09 05:50:01;;;;;;;1999.90;999.90;;;;;;;;;;5167241;27;20057;-85
2023/10/09 05:52:32;;;;;;;1999.90;999.90;;;;;;;;;;5135806;27;20492;-85
2023/10/09 06:03:45;;;;;;;1999.90;999.90;;;;;;;;;;5138012;27;20227;-85
2023/10/09 06:06:18;;;;;;;1999.90;999.90;;;;;;;;;;5130646;27;20053;-89
2023/10/09 06:11:42;;;;;;;1999.90;999.90;;;;;;;;;;5135627;27;20093;-87
2023/10/09 06:14:12;;;;;;;1999.90;999.90;;;;;;;;;;5131805;27;20047;-85
2023/10/09 06:16:59;;;;;;;1999.90;999.90;;;;;;;;;;5126179;27;20074;-86
2023/10/09 06:19:26;;;;;;;1999.90;999.90;;;;;;;;;;5132234;27;20074;-85
2023/10/09 06:22:56;;;;;;;1999.90;999.90;;;;;;;;;;5136974;27;20059;-86
2023/10/09 06:25:09;;;;;;;1999.90;999.90;;;;;;;;;;5138537;27;20130;-86
2023/10/09 06:27:57;;;;;;;1999.90;999.90;;;;;;;;;;5127470;27;20047;-86
2023/10/09 06:30:26;;;;;;;1999.90;999.90;;;;;;;;;;5128611;27;20055;-86
2023/10/09 06:33:19;;;;;;;1999.90;999.90;;;;;;;;;;5137675;27;20047;-85
2023/10/09 06:35:53;;;;;;;1999.90;999.90;;;;;;;;;;5137030;27;20070;-85
2023/10/09 06:38:22;;;;;;;1999.90;999.90;;;;;;;;;;5127751;27;20062;-85
2023/10/09 06:43:42;;;;;;;1999.90;999.90;;;;;;;;;;5123540;27;20055;-85
2023/10/09 06:49:28;;;;;;;1999.90;999.90;;;;;;;;;;5129412;27;20614;-85
2023/10/09 06:51:47;;;;;;;1999.90;999.90;;;;;;;;;;5119727;27;20144;-86
2023/10/09 06:54:16;;;;;;;1999.90;999.90;;;;;;;;;;5125249;27;20077;-84
2023/10/09 06:59:41;;;;;;;1999.90;999.90;;;;;;;;;;5121131;27;20408;-85
2023/10/09 07:02:25;;;;;;;1999.90;999.90;;;;;;;;;;5123451;27;20062;-85
2023/10/09 07:04:55;;;;;;;1999.90;999.90;;;;;;;;;;5124053;27;20047;-85
2023/10/09 07:07:24;;;;;;;1999.90;999.90;;;;;;;;;;5115554;27;20039;-87
2023/10/09 07:12:44;;;;;;;1999.90;999.90;;;;;;;;;;5125198;27;20492;-85
2023/10/09 07:17:55;;;;;;;1999.90;999.90;;;;;;;;;;5090556;27;20051;-85
2023/10/09 07:20:39;;;;;;;1999.90;999.90;;;;;;;;;;5116171;27;20519;-86
2023/10/09 07:23:15;;;;;;;1999.90;999.90;;;;;;;;;;5124472;27;20386;-85
2023/10/09 07:25:54;;;;;;;1999.90;999.90;;;;;;;;;;5118765;27;20051;-86
2023/10/09 07:28:36;;;;;;;1999.90;999.90;;;;;;;;;;5116454;27;20625;-86
2023/10/09 07:31:04;;;;;;;1999.90;999.90;;;;;;;;;;5106355;27;20043;-85
2023/10/09 07:33:51;;;;;;;1999.90;999.90;;;;;;;;;;5104950;27;20059;-85
2023/10/09 07:36:34;;;;;;;1999.90;999.90;;;;;;;;;;5122643;27;20134;-85
2023/10/09 07:39:01;;;;;;;1999.90;999.90;;;;;;;;;;5120181;27;20051;-85
2023/10/09 07:41:39;;;;;;;1999.90;999.90;;;;;;;;;;5120810;27;20048;-84
2023/10/09 07:44:33;;;;;;;1999.90;999.90;;;;;;;;;;5116255;27;20096;-86
2023/10/09 07:47:14;;;;;;;1999.90;999.90;;;;;;;;;;5120842;27;20066;-86
2023/10/09 07:49:42;;;;;;;1999.90;999.90;;;;;;;;;;5118876;27;20047;-86
2023/10/09 07:52:10;;;;;;;1999.90;999.90;;;;;;;;;;5118979;27;20054;-85
2023/10/09 07:54:36;;;;;;;1999.90;999.90;;;;;;;;;;5120835;27;20047;-84
2023/10/09 07:57:15;;;;;;;1999.90;999.90;;;;;;;;;;5119740;27;20130;-83
2023/10/09 07:59:54;;;;;;;1999.90;999.90;;;;;;;;;;5119888;27;20054;-84
2023/10/09 08:02:31;;;;;;;1999.90;999.90;;;;;;;;;;5103515;28;20059;-84
2023/10/09 08:05:03;;;;;;;1999.90;999.90;;;;;;;;;;5118580;27;20142;-84
2023/10/09 08:07:44;;;;;;;1999.90;999.90;;;;;;;;;;5120916;27;20048;-84
2023/10/09 08:15:56;;;;;;;1999.90;999.90;;;;;;;;;;5142787;27;20028;-81
2023/10/09 08:18:27;;;;;;;1999.90;999.90;;;;;;;;;;5134718;27;20043;-84
2023/10/09 08:23:49;;;;;;;1999.90;999.90;;;;;;;;;;5120630;27;20063;-83
2023/10/09 08:26:28;;;;;;;1999.90;999.90;;;;;;;;;;5119003;27;20051;-83
2023/10/09 08:28:54;;;;;;;1999.90;999.90;;;;;;;;;;5124887;27;20550;-83
2023/10/09 08:31:34;;;;;;;1999.90;999.90;;;;;;;;;;5119620;27;20079;-83
2023/10/09 08:34:01;;;;;;;1999.90;999.90;;;;;;;;;;5120442;27;20089;-85
2023/10/09 08:36:36;;;;;;;1999.90;999.90;;;;;;;;;;5119695;27;20070;-83
2023/10/09 08:39:16;;;;;;;1999.90;999.90;;;;;;;;;;5122688;27;20054;-85
2023/10/09 08:41:43;;;;;;;1999.90;999.90;;;;;;;;;;5116636;27;20050;-83
2023/10/09 08:44:14;;;;;;;1999.90;999.90;;;;;;;;;;5118689;27;20494;-82
2023/10/09 08:46:42;;;;;;;1999.90;999.90;;;;;;;;;;5119821;27;20078;-83
2023/10/09 08:49:09;;;;;;;1999.90;999.90;;;;;;;;;;5118849;27;20058;-86
2023/10/09 08:51:36;;;;;;;1999.90;999.90;;;;;;;;;;5105891;28;20039;-84
2023/10/09 08:54:11;;;;;;;1999.90;999.90;;;;;;;;;;5117952;27;20484;-85
2023/10/09 08:56:39;;;;;;;1999.90;999.90;;;;;;;;;;5120362;27;20074;-84
2023/10/09 08:59:07;;;;;;;1999.90;999.90;;;;;;;;;;5122122;27;20047;-88
2023/10/09 09:01:34;;;;;;;1999.90;999.90;;;;;;;;;;5121108;27;20074;-85
2023/10/09 09:04:02;;;;;;;1999.90;999.90;;;;;;;;;;5122714;27;20047;-92
2023/10/09 09:06:38;;;;;;;1999.90;999.90;;;;;;;;;;5119865;27;20102;-83
2023/10/09 09:09:15;;;;;;;;;;;;;;;;;;5118309;27;20050;-89
2023/10/09 09:11:48;;;;;;;;;;;;;;;;;;5125085;27;19934;-86
2023/10/09 09:14:18;;;;;;;1999.90;999.90;;;;;;;;;;5120438;27;19923;-86
2023/10/09 09:16:48;;;;;;;1999.90;999.90;;;;;;;;;;5117576;27;20055;-84
2023/10/09 09:19:18;;;;;;;1999.90;999.90;;;;;;;;;;5115893;28;20082;-88
2023/10/09 09:21:54;;;;;;;1999.90;999.90;;;;;;;;;;5117715;27;20062;-89
2023/10/09 09:24:30;;;;;;;1999.90;999.90;;;;;;;;;;5117146;28;20135;-85
2023/10/09 09:27:09;;;;;;;1999.90;999.90;;;;;;;;;;5118701;28;20059;-85
2023/10/09 09:29:40;;;;;;;1999.90;999.90;;;;;;;;;;5119580;28;20142;-85
2023/10/09 09:32:15;;;;;;;1999.90;999.90;;;;;;;;;;5116146;28;20130;-86
2023/10/09 09:34:46;;;;;;;1999.90;999.90;;;;;;;;;;5118595;28;20044;-84
2023/10/09 09:37:20;;;;;;;1999.90;999.90;;;;;;;;;;5119412;28;20055;-84
2023/10/09 09:39:51;;;;;;;1999.90;999.90;;;;;;;;;;5116299;28;20147;-86
2023/10/09 09:42:25;;;;;;;1999.90;999.90;;;;;;;;;;5100745;28;20055;-85
2023/10/09 09:44:52;;;;;;;1999.90;999.90;;;;;;;;;;5116876;28;20428;-85
2023/10/09 09:47:26;;;;;;;1999.90;999.90;;;;;;;;;;5121036;27;20040;-86
2023/10/09 09:49:59;;;;;;;1999.90;999.90;;;;;;;;;;5118512;28;20059;-85
2023/10/09 09:52:29;;;;;;;1999.90;999.90;;;;;;;;;;5117047;28;20130;-87
2023/10/09 09:54:58;;;;;;;1999.90;999.90;;;;;;;;;;5119498;28;20050;-83
2023/10/09 09:57:28;;;;;;;1999.90;999.90;;;;;;;;;;5116311;28;20039;-86
2023/10/09 09:59:56;;;;;;;1999.90;999.90;;;;;;;;;;5119033;28;20051;-84
2023/10/09 10:02:31;;;;;;;1999.90;999.90;;;;;;;;;;5116532;28;20054;-85
2023/10/09 10:05:03;;;;;;;1999.90;999.90;;;;;;;;;;5117653;27;20138;-87
2023/10/09 10:07:37;;;;;;;1999.90;999.90;;;;;;;;;;5115215;27;20044;-86
2023/10/09 10:10:37;;;;;;;1999.90;999.90;;;;;;;;;;5118571;28;20513;-85
2023/10/09 10:13:04;;;;;;;1999.90;999.90;;;;;;;;;;5117758;27;20047;-86
2023/10/09 10:15:58;;;;;;;1999.90;999.90;;;;;;;;;;5118441;27;20424;-88
2023/10/09 10:18:25;;;;;;;1999.90;999.90;;;;;;;;;;5119112;27;20492;-86
2023/10/09 10:21:14;;;;;;;1999.90;999.90;;;;;;;;;;5125272;27;20047;-85
2023/10/09 10:23:41;;;;;;;1999.90;999.90;;;;;;;;;;5120279;27;20153;-85
2023/10/09 10:26:26;;;;;;;1999.90;999.90;;;;;;;;;;5122962;27;20610;-86
2023/10/09 10:29:22;;;;;;;1999.90;999.90;;;;;;;;;;5129996;27;20062;-87
2023/10/09 10:32:00;;;;;;;1999.90;999.90;;;;;;;;;;5150840;27;20145;-86
2023/10/09 10:34:27;;;;;;;1999.90;999.90;;;;;;;;;;5109840;27;20066;-86
2023/10/09 10:36:59;;;;;;;1999.90;999.90;;;;;;;;;;5122919;27;20675;-86
2023/10/09 10:39:43;;;;;;;1999.90;999.90;;;;;;;;;;5113148;27;20108;-87
2023/10/09 10:42:33;;;;;;;1999.90;999.90;;;;;;;;;;5126092;27;20047;-86
2023/10/09 10:45:02;;;;;;;1999.90;999.90;;;;;;;;;;5119562;27;20073;-87
2023/10/09 10:47:33;;;;;;;1999.90;999.90;;;;;;;;;;5118983;27;20450;-85
2023/10/09 10:50:27;;;;;;;1999.90;999.90;;;;;;;;;;5120457;27;20042;-87
2023/10/09 10:52:58;;;;;;;1999.90;999.90;;;;;;;;;;5116623;27;20051;-86
2023/10/09 10:58:34;;;;;;;1999.90;999.90;;;;;;;;;;5119192;27;20494;-86
2023/10/09 11:01:13;;;;;;;1999.90;999.90;;;;;;;;;;5122188;27;20058;-85
2023/10/09 11:06:35;;;;;;;1999.90;999.90;;;;;;;;;;5116752;27;20643;-85
2023/10/09 11:09:09;;;;;;;1999.90;999.90;;;;;;;;;;5123081;27;20050;-83
2023/10/09 11:11:41;;;;;;;1999.90;999.90;;;;;;;;;;5124586;27;20058;-84
2023/10/09 11:14:14;;;;;;;1999.90;999.90;;;;;;;;;;5123708;27;20063;-85
2023/10/09 11:16:47;;;;;;;1999.90;999.90;;;;;;;;;;5127523;27;20047;-84
2023/10/09 11:19:22;;;;;;;1999.90;999.90;;;;;;;;;;5128009;27;20131;-84
2023/10/09 11:21:58;;;;;;;1999.90;999.90;;;;;;;;;;5123120;27;20039;-84
2023/10/09 11:24:25;;;;;;;1999.90;999.90;;;;;;;;;;5106565;27;20130;-84
2023/10/09 11:26:55;;;;;;;1999.90;999.90;;;;;;;;;;5120551;27;20538;-87
2023/10/09 11:29:29;;;;;;;1999.90;999.90;;;;;;;;;;5120838;27;20516;-87
2023/10/09 11:32:01;;;;;;;1999.90;999.90;;;;;;;;;;5139397;27;20056;-86
2023/10/09 11:34:31;;;;;;;1999.90;999.90;;;;;;;;;;5120287;27;20055;-84
2023/10/09 11:36:58;;;;;;;1999.90;999.90;;;;;;;;;;5118907;27;20051;-85
2023/10/09 11:39:32;;;;;;;1999.90;999.90;;;;;;;;;;5119889;27;20081;-85
2023/10/09 11:42:06;;;;;;;1999.90;999.90;;;;;;;;;;5111700;27;20658;-85
2023/10/09 11:44:41;;;;;;;1999.90;999.90;;;;;;;;;;5120385;27;20426;-85
2023/10/09 11:47:32;;;;;;;1999.90;999.90;;;;;;;;;;5115293;27;20052;-85
2023/10/09 11:50:17;;;;;;;1999.90;999.90;;;;;;;;;;5132127;27;20044;-84
2023/10/09 11:53:08;;;;;;;1999.90;999.90;;;;;;;;;;5132418;27;20050;-87
2023/10/09 11:55:38;;;;;;;1999.90;999.90;;;;;;;;;;5142152;27;20059;-81
2023/10/09 11:58:08;;;;;;;1999.90;999.90;;;;;;;;;;5166389;27;20096;-87
2023/10/09 12:00:45;;;;;;;1999.90;999.90;;;;;;;;;;5134791;27;20056;-86
2023/10/09 12:03:14;;;;;;;1999.90;999.90;;;;;;;;;;5131019;27;20048;-86
2023/10/09 12:05:46;;;;;;;1999.90;999.90;;;;;;;;;;5132449;27;20055;-84
2023/10/09 12:08:15;;;;;;;1999.90;999.90;;;;;;;;;;5134241;27;20063;-86
2023/10/09 12:10:43;;;;;;;1999.90;999.90;;;;;;;;;;5135075;27;20144;-86
2023/10/09 12:13:10;;;;;;;1999.90;999.90;;;;;;;;;;5131806;27;20047;-85
2023/10/09 12:15:46;;;;;;;1999.90;999.90;;;;;;;;;;5128821;27;20082;-85
2023/10/09 12:18:15;;;;;;;1999.90;999.90;;;;;;;;;;5125983;27;20059;-86
2023/10/09 12:20:49;;;;;;;1999.90;999.90;;;;;;;;;;5124708;27;20417;-85
2023/10/09 12:23:16;;;;;;;1999.90;999.90;;;;;;;;;;5118315;27;20056;-85
2023/10/09 12:25:45;;;;;;;1999.90;999.90;;;;;;;;;;5117667;27;20253;-86
2023/10/09 12:28:15;;;;;;;1999.90;999.90;;;;;;;;;;5083198;27;20063;-86
2023/10/09 12:30:47;;;;;;;1999.90;999.90;;;;;;;;;;5117377;27;20142;-87
2023/10/09 12:33:15;;;;;;;1999.90;999.90;;;;;;;;;;5117520;27;20047;-86
2023/10/09 12:35:45;;;;;;;1999.90;999.90;;;;;;;;;;5125047;27;20047;-86
2023/10/09 12:38:13;;;;;;;1999.90;999.90;;;;;;;;;;5145829;27;20067;-87
2023/10/09 12:40:41;;;;;;;1999.90;999.90;;;;;;;;;;5130620;27;20071;-86
2023/10/09 12:43:15;;;;;;;1999.90;999.90;;;;;;;;;;5123558;27;20054;-86
2023/10/09 12:45:44;;;;;;;1999.90;999.90;;;;;;;;;;5117142;27;20576;-87
2023/10/09 12:48:12;;;;;;;1999.90;999.90;;;;;;;;;;5119637;27;20116;-86
2023/10/09 12:50:41;;;;;;;1999.90;999.90;;;;;;;;;;5122387;27;20051;-86
2023/10/09 12:53:08;;;;;;;1999.90;999.90;;;;;;;;;;5121178;27;20047;-84
2023/10/09 12:55:40;;;;;;;1999.90;999.90;;;;;;;;;;5125206;27;20074;-86
2023/10/09 12:58:07;;;;;;;1999.90;999.90;;;;;;;;;;5114913;27;20051;-86
2023/10/09 13:00:37;;;;;;;1999.90;999.90;;;;;;;;;;5122087;27;20059;-86
2023/10/09 13:03:16;;;;;;;1999.90;999.90;;;;;;;;;;5118421;27;20501;-88
2023/10/09 13:05:51;;;;;;;1999.90;999.90;;;;;;;;;;5121754;27;20404;-86
2023/10/09 13:08:21;;;;;;;1999.90;999.90;;;;;;;;;;5117034;27;20051;-87
2023/10/09 13:10:58;;;;;;;1999.90;999.90;;;;;;;;;;5120483;27;20057;-86
2023/10/09 13:13:26;;;;;;;1999.90;999.90;;;;;;;;;;5118351;27;20421;-87
2023/10/09 13:15:53;;;;;;;1999.90;999.90;;;;;;;;;;5119607;27;20051;-86
2023/10/09 13:18:22;;;;;;;1999.90;999.90;;;;;;;;;;5148038;27;20047;-86
2023/10/09 13:20:52;;;;;;;1999.90;999.90;;;;;;;;;;5101664;28;20090;-85
2023/10/09 13:23:19;;;;;;;1999.90;999.90;;;;;;;;;;5115236;27;20104;-85
2023/10/09 13:25:45;;;;;;;1999.90;999.90;;;;;;;;;;5117253;27;20083;-85
2023/10/09 13:28:20;;;;;;;1999.90;999.90;;;;;;;;;;5110667;28;20132;-86
2023/10/09 13:30:50;;;;;;;1999.90;999.90;;;;;;;;;;5113991;28;20051;-86
2023/10/09 13:33:21;;;;;;;1999.90;999.90;;;;;;;;;;5148806;27;20047;-86
2023/10/09 13:35:50;;;;;;;1999.90;999.90;;;;;;;;;;5118498;28;20047;-85
2023/10/09 13:38:18;;;;;;;1999.90;999.90;;;;;;;;;;5117643;27;20096;-85
2023/10/09 13:40:45;;;;;;;1999.90;999.90;;;;;;;;;;5108461;28;20687;-85
2023/10/09 13:43:16;;;;;;;1999.90;999.90;;;;;;;;;;5120314;28;20552;-86
2023/10/09 13:45:48;;;;;;;1999.90;999.90;;;;;;;;;;5135415;27;20076;-86
2023/10/09 13:48:17;;;;;;;1999.90;999.90;;;;;;;;;;5150485;27;20514;-85
2023/10/09 13:50:44;;;;;;;1999.90;999.90;;;;;;;;;;5122204;27;20058;-85
2023/10/09 13:53:14;;;;;;;1999.90;999.90;;;;;;;;;;5124236;27;20501;-86
2023/10/09 13:55:43;;;;;;;1999.90;999.90;;;;;;;;;;5128158;27;20050;-88
2023/10/09 13:58:13;;;;;;;1999.90;999.90;;;;;;;;;;5121672;27;20057;-87
2023/10/09 14:00:42;;;;;;;1999.90;999.90;;;;;;;;;;5121532;27;20770;-88
2023/10/09 14:03:13;;;;;;;1999.90;999.90;;;;;;;;;;5127482;27;20060;-86
2023/10/09 14:05:51;;;;;;;1999.90;999.90;;;;;;;;;;5125735;27;20063;-87
2023/10/09 14:08:23;;;;;;;1999.90;999.90;;;;;;;;;;5120770;27;20058;-87
2023/10/09 14:10:49;;;;;;;1999.90;999.90;;;;;;;;;;5125757;27;20073;-85
2023/10/09 14:13:25;;;;;;;1999.90;999.90;;;;;;;;;;5122680;27;20097;-85
2023/10/09 14:15:54;;;;;;;1999.90;999.90;;;;;;;;;;5121783;27;20047;-86
2023/10/09 14:18:21;;;;;;;1999.90;999.90;;;;;;;;;;5122753;27;20048;-87
2023/10/09 14:20:56;;;;;;;1999.90;999.90;;;;;;;;;;5121505;27;20132;-85
2023/10/09 14:23:32;;;;;;;1999.90;999.90;;;;;;;;;;5120892;27;20051;-87
2023/10/09 14:26:01;;;;;;;1999.90;999.90;;;;;;;;;;5119677;27;20127;-86
2023/10/09 14:28:28;;;;;;;1999.90;999.90;;;;;;;;;;5121560;27;20079;-87
2023/10/09 14:30:59;;;;;;;1999.90;999.90;;;;;;;;;;5122545;27;20130;-88
2023/10/09 14:33:27;;;;;;;1999.90;999.90;;;;;;;;;;5121622;27;20058;-87
2023/10/09 14:35:55;;;;;;;1999.90;999.90;;;;;;;;;;5129731;27;20043;-86
2023/10/09 14:38:27;;;;;;;1999.90;999.90;;;;;;;;;;5126804;27;20485;-87
2023/10/09 14:40:59;;;;;;;1999.90;999.90;;;;;;;;;;5121447;27;20047;-87
2023/10/09 14:43:28;;;;;;;1999.90;999.90;;;;;;;;;;5124100;27;20047;-87
2023/10/09 14:45:55;;;;;;;1999.90;999.90;;;;;;;;;;5137292;27;20035;-87
2023/10/09 14:48:25;;;;;;;1999.90;999.90;;;;;;;;;;5144661;27;20084;-84
2023/10/09 14:50:53;;;;;;;1999.90;999.90;;;;;;;;;;5115127;28;20130;-84
2023/10/09 14:53:20;;;;;;;1999.90;999.90;;;;;;;;;;5123365;27;20040;-83
2023/10/09 14:55:47;;;;;;;1999.90;999.90;;;;;;;;;;5122322;27;20051;-84
2023/10/09 14:58:17;;;;;;;1999.90;999.90;;;;;;;;;;5124932;27;20130;-84
2023/10/09 15:00:46;;;;;;;1999.90;999.90;;;;;;;;;;5116022;27;20484;-84
2023/10/09 15:03:14;;;;;;;1999.90;999.90;;;;;;;;;;5120423;27;20652;-84
2023/10/09 15:05:43;;;;;;;1999.90;999.90;;;;;;;;;;5120006;27;20047;-83
2023/10/09 15:08:10;;;;;;;1999.90;999.90;;;;;;;;;;5124874;27;20047;-83
2023/10/09 15:10:45;;;;;;;1999.90;999.90;;;;;;;;;;5121884;27;20075;-83
2023/10/09 15:13:13;;;;;;;1999.90;999.90;;;;;;;;;;5119052;27;20059;-84
2023/10/09 15:15:43;;;;;;;1999.90;999.90;;;;;;;;;;5122223;27;20071;-83
2023/10/09 15:18:18;;;;;;;1999.90;999.90;;;;;;;;;;5121085;27;20501;-85